Flight Track Log - Related Links

Times and Time Zones

All times are in EDT time to prevent confusion due to time zone crossing. See the N762NC flight status page for this flight to view local times or setup timezone preferences in your user account.

Time Position Orientation Groundspeed Altitude Reporting Facility
EDT Latitude Longitude Course Direction KTS MPH feet Rate Location/Type
Fri 07:11:42 PM 32.0808 -81.1125 288° West 213 245 3,200  Level Jacksonville Center
Fri 07:12:42 PM 32.0147 -81.1531 207° Southwest 224 258 5,400 2,100 Climbing Jacksonville Center
Fri 07:13:42 PM 32.0283 -81.2361 281° West 212 244 7,400 2,100 Climbing Jacksonville Center
Fri 07:14:42 PM 32.0772 -81.3039 310° West 230 265 9,600 1,500 Climbing Jacksonville Center
Fri 07:15:42 PM 32.1117 -81.3964 294° West 276 318 10,400 1,400 Climbing Jacksonville Center
Fri 07:16:00 PM 32.2682 -81.7333 288° West  Level FlightAware Approximate
Fri 07:16:42 PM 32.1442 -81.4917 292° West 335 386 12,400  Level Jacksonville Center
Fri 07:17:00 PM 32.2927 -81.8232 288° West  Level FlightAware Approximate
Fri 07:17:42 PM 32.1914 -81.6014 297° West 341 392 14,300  Level Jacksonville Center
Fri 07:18:42 PM 32.2278 -81.6989 294° West 352 405 16,400 1,850 Climbing Jacksonville Center
Fri 07:19:42 PM 32.2769 -81.8189 296° West 362 417 18,000 1,455 Climbing Jacksonville Center
Fri 07:22:04 PM 32.3636 -82.0914 291° West 379 436 21,300 1,188 Climbing Atlanta Center
Fri 07:23:04 PM 32.3989 -82.2183 288° West 390 449 22,000 300 Climbing Atlanta Center
Fri 07:24:04 PM 32.4322 -82.3456 287° West 403 464 21,900  Descending Atlanta Center
Fri 07:25:04 PM 32.4733 -82.4731 291° West 408 470 22,000 50 Climbing Atlanta Center
Fri 07:26:04 PM 32.5083 -82.6053 287° West 413 475 22,000 -50 Level Atlanta Center
Fri 07:27:04 PM 32.5475 -82.7353 290° West 421 484 21,900  Descending Atlanta Center
Fri 07:28:04 PM 32.5967 -82.8653 294° West 421 484 22,000  Climbing Atlanta Center
Fri 07:29:04 PM 32.6731 -82.9803 308° West 434 499 21,900 -50 Descending Atlanta Center
Fri 07:30:04 PM 32.7492 -83.1003 307° West 446 513 21,900  Level Atlanta Center
Fri 07:31:04 PM 32.8333 -83.1983 316° Northwest 440 506 21,900 -650 Level Atlanta Center
Fri 07:32:04 PM 32.9131 -83.2842 318° Northwest 412 474 20,600 -1,750 Descending Atlanta Center
Fri 07:33:04 PM 32.9783 -83.3753 311° West 387 445 18,400 -1,900 Descending Atlanta Center
Fri 07:34:04 PM 33.0372 -83.4689 307° West 368 423 16,800 -1,200 Descending Atlanta Center
Fri 07:35:04 PM 33.0856 -83.5456 307° West 339 390 16,000 -1,250 Descending Atlanta Center
Fri 07:36:04 PM 33.1422 -83.6344 307° West 318 366 14,300 -1,000 Descending Atlanta Center
Fri 07:37:04 PM 33.1886 -83.7186 303° West 308 354 14,000 -150 Descending Atlanta Center
Fri 07:38:04 PM 33.2306 -83.8053 300° West 303 349 14,000 -300 Level Atlanta Center
Fri 07:39:04 PM 33.2722 -83.8897 301° West 303 349 13,400 -850 Descending Atlanta Center
Fri 07:40:04 PM 33.3225 -83.9692 307° West 303 349 12,300 -700 Descending Atlanta Center
Fri 07:41:04 PM 33.3725 -84.0489 307° West 298 343 12,000 -150 Descending Atlanta Center
Fri 07:42:04 PM 33.4144 -84.1158 307° West 277 319 12,000  Level Atlanta Center
Fri 07:43:04 PM 33.4561 -84.1808 308° West 257 296 12,000  Level Atlanta Center
Fri 07:44:04 PM 33.4997 -84.2456 309° West 250 288 12,000 50 Level Atlanta Center
Fri 07:45:04 PM 33.5267 -84.3056 298° West 242 278 12,100 -800 Climbing Atlanta Center
Fri 07:46:04 PM 33.5453 -84.3703 289° West 220 253 10,400 -1,824 Descending Atlanta Center
Fri 07:47:09 PM 33.5500 -84.4500 274° West 216 249 8,300 -1,776 Descending Atlanta TRACON
Fri 07:48:09 PM 33.5500 -84.5167 270° West 203 234 6,700 -1,664 Descending Atlanta TRACON
Fri 07:49:08 PM 33.5333 -84.5833 253° West 203 234 5,000 -1,316 Descending Atlanta TRACON
Fri 07:50:03 PM 33.5333 -84.6500 270° West 211 243 4,200 -470 Descending Atlanta TRACON
Fri 07:51:03 PM 33.5333 -84.7167 270° West 211 243 4,100 -350 Descending Atlanta TRACON
Fri 07:52:03 PM 33.5333 -84.7833 270° West 214 246 3,500 -550 Descending Atlanta TRACON
Fri 07:53:03 PM 33.5667 -84.8167 320° Northwest 201 231 3,000 -200 Descending Atlanta TRACON
Fri 07:54:03 PM 33.6167 -84.8000 16° North 177 204 3,100 50 Climbing Atlanta TRACON
Fri 07:55:03 PM 33.6167 -84.7333 90° East 163 188 3,100  Level Atlanta TRACON
Fri 07:56:09 PM 33.6167 -84.6833 90° East 162 186 3,100  Level Atlanta TRACON
Fri 07:57:09 PM 33.6167 -84.6167 90° East 162 186 3,100 -50 Level Atlanta TRACON
Fri 07:58:09 PM 33.6167 -84.5667 90° East 165 190 3,000 -450 Descending Atlanta TRACON
Fri 07:59:09 PM 33.6167 -84.5167 90° East 141 162 2,200 -800 Descending Atlanta TRACON
Fri 08:00:09 PM 33.6167 -84.4667 90° East 139 160 1,400 -800 Descending Atlanta TRACON

Login

Don't have an account? Register now (free) for customized features, flight alerts, and more!